createdAt,value
2019-03-22T00:01:51.676Z,1035.15
2019-03-22T00:03:51.669Z,1035.14
2019-03-22T00:07:51.658Z,1035.24
2019-03-22T00:09:51.679Z,1035.22
2019-03-22T00:13:51.672Z,1035.18
2019-03-22T00:15:51.687Z,1035.23
2019-03-22T00:19:51.687Z,1035.19
2019-03-22T00:21:51.689Z,1035.16
2019-03-22T00:25:51.663Z,1035.12
2019-03-22T00:27:51.676Z,1035.09
2019-03-22T00:31:51.682Z,1035.13
2019-03-22T00:33:56.193Z,1035.12
2019-03-22T00:37:51.692Z,1035.03
2019-03-22T00:39:51.686Z,1034.92
2019-03-22T00:43:51.690Z,1034.90
2019-03-22T00:45:51.697Z,1034.86
2019-03-22T00:49:51.709Z,1034.83
2019-03-22T00:51:51.706Z,1034.83
2019-03-22T00:55:51.687Z,1034.81
2019-03-22T00:57:51.723Z,1034.79
2019-03-22T01:01:51.710Z,1034.85
2019-03-22T01:03:51.730Z,1034.96
2019-03-22T01:07:51.725Z,1035.04
2019-03-22T01:09:51.740Z,1035.05
2019-03-22T01:13:51.720Z,1034.99
2019-03-22T01:15:51.756Z,1035.02
2019-03-22T01:19:51.735Z,1035.05
2019-03-22T01:21:56.746Z,1035.15
2019-03-22T01:25:51.735Z,1035.05
2019-03-22T01:27:51.740Z,1035.05
2019-03-22T01:31:51.735Z,1035.09
2019-03-22T01:33:56.760Z,1035.06
2019-03-22T01:37:51.736Z,1035.05
2019-03-22T01:39:51.749Z,1035.00
2019-03-22T01:43:51.755Z,1035.02
2019-03-22T01:45:51.761Z,1035.00
2019-03-22T01:49:51.770Z,1034.85
2019-03-22T01:51:51.769Z,1034.90
2019-03-22T01:55:51.772Z,1034.92
2019-03-22T01:57:53.625Z,1034.91
2019-03-22T02:01:56.778Z,1034.84
2019-03-22T02:03:56.720Z,1034.82
2019-03-22T02:07:56.745Z,1034.85
2019-03-22T02:09:56.186Z,1034.83
2019-03-22T02:13:51.808Z,1034.69
2019-03-22T02:15:51.772Z,1034.69
2019-03-22T02:19:51.767Z,1034.63
2019-03-22T02:21:56.718Z,1034.57
2019-03-22T02:25:51.787Z,1034.54
2019-03-22T02:28:03.464Z,1034.46
2019-03-22T02:31:51.794Z,1034.45
2019-03-22T02:33:56.809Z,1034.51
2019-03-22T02:37:54.120Z,1034.49
2019-03-22T02:39:51.810Z,1034.47
2019-03-22T02:43:56.984Z,1034.49
2019-03-22T02:45:51.801Z,1034.46
2019-03-22T02:49:51.808Z,1034.49
2019-03-22T02:51:56.802Z,1034.40
2019-03-22T02:55:57.145Z,1034.33
2019-03-22T02:57:51.813Z,1034.37
2019-03-22T03:01:51.809Z,1034.29
2019-03-22T03:03:51.842Z,1034.24
2019-03-22T03:07:51.812Z,1034.12
2019-03-22T03:09:51.848Z,1034.13
2019-03-22T03:13:51.843Z,1034.11
2019-03-22T03:15:51.827Z,1034.07
2019-03-22T03:19:51.836Z,1034.05
2019-03-22T03:21:51.847Z,1033.97
2019-03-22T03:25:51.845Z,1033.97
2019-03-22T03:27:51.846Z,1034.01
2019-03-22T03:31:56.873Z,1033.91
2019-03-22T03:33:51.869Z,1033.94
2019-03-22T03:37:51.848Z,1033.90
2019-03-22T03:39:51.857Z,1033.95
2019-03-22T03:43:51.855Z,1033.93
2019-03-22T03:45:51.883Z,1033.94
2019-03-22T03:49:51.875Z,1033.89
2019-03-22T03:52:00.952Z,1033.97
2019-03-22T03:55:51.861Z,1034.04
2019-03-22T03:57:51.857Z,1034.07
2019-03-22T04:01:56.841Z,1034.05
2019-03-22T04:03:51.863Z,1034.11
2019-03-22T04:07:56.914Z,1034.13
2019-03-22T04:09:51.877Z,1034.06
2019-03-22T04:13:51.868Z,1034.05
2019-03-22T04:15:56.337Z,1034.07
2019-03-22T04:19:51.883Z,1033.97
2019-03-22T04:21:51.881Z,1033.96
2019-03-22T04:25:56.867Z,1033.97
2019-03-22T04:27:51.900Z,1033.96
2019-03-22T04:31:51.884Z,1034.01
2019-03-22T04:33:51.916Z,1033.97
2019-03-22T04:37:51.905Z,1033.96
2019-03-22T04:39:51.914Z,1033.88
2019-03-22T04:43:51.929Z,1033.88
2019-03-22T04:45:56.935Z,1033.80
2019-03-22T04:49:51.898Z,1033.82
2019-03-22T04:51:51.906Z,1033.80
2019-03-22T04:55:51.916Z,1033.80
2019-03-22T04:57:51.911Z,1033.76
2019-03-22T05:01:51.936Z,1033.86
2019-03-22T05:03:51.928Z,1033.83
2019-03-22T05:07:51.940Z,1033.86
2019-03-22T05:09:51.925Z,1033.91
2019-03-22T05:13:51.924Z,1033.99
2019-03-22T05:15:51.949Z,1034.04
2019-03-22T05:19:51.942Z,1034.04
2019-03-22T05:21:51.958Z,1033.99
2019-03-22T05:25:56.929Z,1034.02
2019-03-22T05:27:51.936Z,1034.03
2019-03-22T05:31:51.947Z,1033.99
2019-03-22T05:33:56.914Z,1033.91
2019-03-22T05:37:51.951Z,1033.94
2019-03-22T05:39:51.960Z,1034.03
2019-03-22T05:43:51.955Z,1033.99
2019-03-22T05:45:51.953Z,1033.92
2019-03-22T05:49:51.956Z,1033.91
2019-03-22T05:51:51.965Z,1033.92
2019-03-22T05:55:51.968Z,1034.03
2019-03-22T05:57:51.968Z,1034.00
2019-03-22T06:01:51.983Z,1034.00
2019-03-22T06:03:51.969Z,1034.03
2019-03-22T06:07:51.968Z,1033.98
2019-03-22T06:09:51.983Z,1033.93
2019-03-22T06:13:51.986Z,1033.85
2019-03-22T06:15:51.983Z,1033.91
2019-03-22T06:19:51.978Z,1033.96
2019-03-22T06:21:56.638Z,1033.96
2019-03-22T06:25:52.001Z,1034.00
2019-03-22T06:27:52.011Z,1033.99
2019-03-22T06:31:52.011Z,1033.92
2019-03-22T06:33:52.013Z,1033.94
2019-03-22T06:37:52.034Z,1034.01
2019-03-22T06:39:52.012Z,1034.05
2019-03-22T06:43:57.024Z,1034.12
2019-03-22T06:45:52.002Z,1034.13
2019-03-22T06:49:52.019Z,1034.05
2019-03-22T06:51:56.943Z,1034.02
2019-03-22T06:55:52.048Z,1033.99
2019-03-22T06:57:52.056Z,1034.05
2019-03-22T07:01:52.011Z,1034.14
2019-03-22T07:03:52.048Z,1034.13
2019-03-22T07:07:52.037Z,1034.07
2019-03-22T07:09:55.745Z,1034.05
2019-03-22T07:13:52.034Z,1034.04
2019-03-22T07:15:55.699Z,1033.93
2019-03-22T07:19:52.052Z,1033.95
2019-03-22T07:21:52.069Z,1033.93
2019-03-22T07:25:52.074Z,1033.87
2019-03-22T07:27:52.057Z,1033.89
2019-03-22T07:31:52.062Z,1033.83
2019-03-22T07:33:52.068Z,1033.80
2019-03-22T07:37:55.848Z,1033.79
2019-03-22T07:39:53.862Z,1033.87
2019-03-22T07:43:52.073Z,1033.83
2019-03-22T07:45:57.094Z,1033.84
2019-03-22T07:53:52.067Z,1033.92
2019-03-22T07:55:54.357Z,1033.93
2019-03-22T08:00:08.891Z,1033.99
2019-03-22T08:01:57.511Z,1034.02
2019-03-22T08:05:52.075Z,1034.01
2019-03-22T08:07:52.094Z,1033.98
2019-03-22T08:11:52.086Z,1033.97
2019-03-22T08:13:55.660Z,1033.87
2019-03-22T08:17:57.237Z,1033.85
2019-03-22T08:20:18.582Z,1033.89
2019-03-22T08:23:55.886Z,1033.85
2019-03-22T08:25:52.109Z,1033.85
2019-03-22T08:29:52.114Z,1033.85
2019-03-22T08:31:59.937Z,1033.77
2019-03-22T08:35:52.137Z,1033.75
2019-03-22T08:37:53.072Z,1033.81
2019-03-22T08:41:52.122Z,1033.77
2019-03-22T08:43:52.121Z,1033.78
2019-03-22T08:47:52.128Z,1033.75
2019-03-22T08:50:04.108Z,1033.79
2019-03-22T08:53:55.458Z,1033.75
2019-03-22T08:55:57.169Z,1033.73
2019-03-22T08:59:52.136Z,1033.63
2019-03-22T09:01:52.137Z,1033.68
2019-03-22T09:05:52.168Z,1033.69
2019-03-22T09:07:52.202Z,1033.65
2019-03-22T09:11:56.702Z,1033.66
2019-03-22T09:13:53.761Z,1033.65
2019-03-22T09:17:52.248Z,1033.62
2019-03-22T09:19:52.255Z,1033.65
2019-03-22T09:23:56.776Z,1033.61
2019-03-22T09:25:52.242Z,1033.47
2019-03-22T09:29:52.281Z,1033.40
2019-03-22T09:31:53.656Z,1033.43
2019-03-22T09:35:52.285Z,1033.34
2019-03-22T09:37:52.254Z,1033.34
2019-03-22T09:41:52.256Z,1033.29
2019-03-22T09:43:52.308Z,1033.35
2019-03-22T09:47:52.254Z,1033.33
2019-03-22T09:49:57.461Z,1033.25
2019-03-22T09:53:52.272Z,1033.15
2019-03-22T09:55:52.293Z,1033.12
2019-03-22T09:59:52.281Z,1033.00
2019-03-22T10:01:56.496Z,1033.01
2019-03-22T10:05:56.311Z,1032.94
2019-03-22T10:07:57.296Z,1032.92
2019-03-22T10:11:57.475Z,1032.91
2019-03-22T10:13:52.313Z,1032.80
2019-03-22T10:17:52.279Z,1032.82
2019-03-22T10:19:52.296Z,1032.81
2019-03-22T10:23:52.373Z,1032.79
2019-03-22T10:25:57.272Z,1032.75
2019-03-22T10:29:52.294Z,1032.64
2019-03-22T10:31:52.301Z,1032.62
2019-03-22T10:35:57.267Z,1032.54
2019-03-22T10:38:00.991Z,1032.60
2019-03-22T10:43:52.329Z,1032.50
2019-03-22T10:45:57.395Z,1032.45
2019-03-22T10:49:52.323Z,1032.45
2019-03-22T10:51:57.718Z,1032.41
2019-03-22T10:55:59.851Z,1032.32
2019-03-22T10:57:56.175Z,1032.32
2019-03-22T11:03:52.480Z,1032.24
2019-03-22T11:07:52.352Z,1032.21
2019-03-22T11:09:52.326Z,1032.16
2019-03-22T11:13:52.351Z,1032.04
2019-03-22T11:15:54.452Z,1032.04
2019-03-22T11:19:52.344Z,1031.95
2019-03-22T11:21:52.364Z,1031.98
2019-03-22T11:26:04.047Z,1031.90
2019-03-22T11:27:52.362Z,1031.92
2019-03-22T11:31:52.363Z,1031.86
2019-03-22T11:34:00.887Z,1031.80
2019-03-22T11:37:52.365Z,1031.75
2019-03-22T11:39:52.364Z,1031.72
2019-03-22T11:43:52.358Z,1031.60
2019-03-22T11:45:52.349Z,1031.52
2019-03-22T11:49:52.372Z,1031.53
2019-03-22T11:52:00.566Z,1031.50
2019-03-22T11:55:52.412Z,1031.46
2019-03-22T11:57:52.383Z,1031.42
2019-03-22T12:01:52.388Z,1031.36
2019-03-22T12:03:52.389Z,1031.33
2019-03-22T12:07:52.384Z,1031.33
2019-03-22T12:09:57.415Z,1031.33
2019-03-22T12:13:52.401Z,1031.30
2019-03-22T12:15:52.396Z,1031.20
2019-03-22T12:19:52.412Z,1031.06
2019-03-22T12:21:56.830Z,1031.07
2019-03-22T12:25:52.424Z,1031.02
2019-03-22T12:27:56.294Z,1031.02
2019-03-22T12:31:52.417Z,1030.97
2019-03-22T12:33:52.428Z,1030.88
2019-03-22T12:37:52.404Z,1030.82
2019-03-22T12:39:52.433Z,1030.79
2019-03-22T12:43:52.424Z,1030.78
2019-03-22T12:46:02.150Z,1030.68
2019-03-22T12:49:52.423Z,1030.70
2019-03-22T12:51:52.434Z,1030.66
2019-03-22T12:55:52.434Z,1030.60
2019-03-22T12:57:52.440Z,1030.61
2019-03-22T13:01:52.451Z,1030.50
2019-03-22T13:03:57.189Z,1030.39
2019-03-22T13:07:57.464Z,1030.33
2019-03-22T13:09:55.757Z,1030.39
2019-03-22T13:15:52.472Z,1030.21
2019-03-22T13:17:52.483Z,1030.16
2019-03-22T13:21:53.302Z,1030.06
2019-03-22T13:23:52.474Z,1030.07
2019-03-22T13:27:57.502Z,1029.96
2019-03-22T13:29:52.490Z,1029.98
2019-03-22T13:33:57.082Z,1029.88
2019-03-22T13:35:52.485Z,1029.95
2019-03-22T13:39:57.456Z,1029.84
2019-03-22T13:41:52.494Z,1029.81
2019-03-22T13:45:52.474Z,1029.85
2019-03-22T13:47:52.538Z,1029.81
2019-03-22T13:51:57.431Z,1029.79
2019-03-22T13:53:57.192Z,1029.68
2019-03-22T13:57:52.488Z,1029.63
2019-03-22T13:59:52.522Z,1029.60
2019-03-22T14:03:52.520Z,1029.62
2019-03-22T14:05:52.548Z,1029.63
2019-03-22T14:09:56.986Z,1029.57
2019-03-22T14:11:58.714Z,1029.51
2019-03-22T14:15:57.119Z,1029.48
2019-03-22T14:17:52.535Z,1029.50
2019-03-22T14:21:52.531Z,1029.42
2019-03-22T14:23:55.257Z,1029.40
2019-03-22T14:27:56.334Z,1029.33
2019-03-22T14:29:54.752Z,1029.36
2019-03-22T14:33:56.385Z,1029.23
2019-03-22T14:35:52.543Z,1029.22
2019-03-22T14:39:52.566Z,1029.16
2019-03-22T14:41:52.594Z,1029.15
2019-03-22T14:45:52.576Z,1029.02
2019-03-22T14:47:56.232Z,1029.06
2019-03-22T14:51:52.567Z,1028.95
2019-03-22T14:53:52.577Z,1029.03
2019-03-22T14:57:57.186Z,1028.98
2019-03-22T14:59:58.828Z,1028.95
2019-03-22T15:03:52.574Z,1028.98
2019-03-22T15:05:52.611Z,1028.95
2019-03-22T15:09:52.591Z,1028.95
2019-03-22T15:11:52.797Z,1028.88
2019-03-22T15:15:52.566Z,1028.81
2019-03-22T15:17:56.284Z,1028.78
2019-03-22T15:21:52.625Z,1028.79
2019-03-22T15:24:03.522Z,1028.70
2019-03-22T15:27:52.596Z,1028.59
2019-03-22T15:29:52.587Z,1028.64
2019-03-22T15:35:52.697Z,1028.55
2019-03-22T15:39:52.629Z,1028.52
2019-03-22T15:41:52.627Z,1028.46
2019-03-22T15:45:52.623Z,1028.49
2019-03-22T15:47:52.628Z,1028.48
2019-03-22T15:51:56.399Z,1028.41
2019-03-22T15:53:54.459Z,1028.44
2019-03-22T15:57:52.638Z,1028.39
2019-03-22T15:59:52.635Z,1028.40
2019-03-22T16:03:52.627Z,1028.31
2019-03-22T16:05:52.628Z,1028.34
2019-03-22T16:09:57.213Z,1028.30
2019-03-22T16:11:52.639Z,1028.22
2019-03-22T16:15:52.670Z,1028.29
2019-03-22T16:17:52.651Z,1028.33
2019-03-22T16:23:52.663Z,1028.29
2019-03-22T16:25:52.664Z,1028.32
2019-03-22T16:29:52.669Z,1028.30
2019-03-22T16:31:52.662Z,1028.25
2019-03-22T16:35:52.667Z,1028.32
2019-03-22T16:37:52.687Z,1028.33
2019-03-22T16:41:52.687Z,1028.38
2019-03-22T16:43:52.676Z,1028.35
2019-03-22T16:47:52.679Z,1028.39
2019-03-22T16:49:52.695Z,1028.37
2019-03-22T16:53:52.706Z,1028.39
2019-03-22T16:55:52.693Z,1028.41
2019-03-22T16:59:57.205Z,1028.38
2019-03-22T17:01:52.690Z,1028.40
2019-03-22T17:05:52.678Z,1028.42
2019-03-22T17:07:57.696Z,1028.38
2019-03-22T17:11:52.705Z,1028.37
2019-03-22T17:13:52.701Z,1028.41
2019-03-22T17:17:52.709Z,1028.38
2019-03-22T17:19:52.713Z,1028.34
2019-03-22T17:23:52.716Z,1028.39
2019-03-22T17:25:52.739Z,1028.42
2019-03-22T17:29:52.725Z,1028.43
2019-03-22T17:31:56.354Z,1028.49
2019-03-22T17:35:57.692Z,1028.52
2019-03-22T17:37:52.750Z,1028.49
2019-03-22T17:41:52.718Z,1028.50
2019-03-22T17:43:52.728Z,1028.53
2019-03-22T17:47:52.750Z,1028.56
2019-03-22T17:49:52.726Z,1028.57
2019-03-22T17:53:57.134Z,1028.64
2019-03-22T17:55:52.740Z,1028.65
2019-03-22T17:59:52.730Z,1028.59
2019-03-22T18:01:58.156Z,1028.62
2019-03-22T18:05:52.754Z,1028.68
2019-03-22T18:07:52.782Z,1028.68
2019-03-22T18:11:52.739Z,1028.63
2019-03-22T18:13:52.769Z,1028.59
2019-03-22T18:19:52.752Z,1028.70
2019-03-22T18:23:57.100Z,1028.65
2019-03-22T18:25:52.802Z,1028.69
2019-03-22T18:29:52.771Z,1028.72
2019-03-22T18:31:52.764Z,1028.74
2019-03-22T18:35:52.777Z,1028.80
2019-03-22T18:37:52.780Z,1028.84
2019-03-22T18:41:52.855Z,1028.86
2019-03-22T18:43:56.455Z,1028.88
2019-03-22T18:47:56.535Z,1028.95
2019-03-22T18:49:52.804Z,1028.92
2019-03-22T18:53:52.830Z,1028.88
2019-03-22T18:55:52.839Z,1028.95
2019-03-22T18:59:52.850Z,1029.02
2019-03-22T19:01:52.813Z,1028.92
2019-03-22T19:05:52.836Z,1028.88
2019-03-22T19:07:52.844Z,1028.90
2019-03-22T19:11:52.821Z,1028.87
2019-03-22T19:13:52.865Z,1028.78
2019-03-22T19:17:52.836Z,1028.78
2019-03-22T19:19:57.914Z,1028.74
2019-03-22T19:23:52.863Z,1028.80
2019-03-22T19:25:52.855Z,1028.75
2019-03-22T19:29:52.861Z,1028.71
2019-03-22T19:31:57.255Z,1028.72
2019-03-22T19:35:52.890Z,1028.69
2019-03-22T19:37:52.929Z,1028.70
2019-03-22T19:41:52.885Z,1028.75
2019-03-22T19:43:52.875Z,1028.73
2019-03-22T19:47:55.076Z,1028.73
2019-03-22T19:49:52.909Z,1028.80
2019-03-22T19:53:52.921Z,1028.80
2019-03-22T19:55:52.911Z,1028.86
2019-03-22T19:59:52.912Z,1028.84
2019-03-22T20:01:52.903Z,1028.95
2019-03-22T20:05:52.900Z,1028.91
2019-03-22T20:07:52.892Z,1028.85
2019-03-22T20:11:52.905Z,1028.97
2019-03-22T20:13:52.886Z,1029.00
2019-03-22T20:17:52.892Z,1029.03
2019-03-22T20:20:02.079Z,1029.05
2019-03-22T20:23:53.764Z,1029.08
2019-03-22T20:25:52.906Z,1029.17
2019-03-22T20:29:52.902Z,1029.21
2019-03-22T20:31:52.924Z,1029.26
2019-03-22T20:35:52.906Z,1029.31
2019-03-22T20:37:52.911Z,1029.28
2019-03-22T20:41:52.898Z,1029.25
2019-03-22T20:43:52.920Z,1029.27
2019-03-22T20:47:52.931Z,1029.26
2019-03-22T20:50:01.859Z,1029.25
2019-03-22T20:53:52.954Z,1029.34
2019-03-22T20:55:52.942Z,1029.28
2019-03-22T20:59:52.954Z,1029.51
2019-03-22T21:01:52.926Z,1029.57
2019-03-22T21:05:52.949Z,1029.54
2019-03-22T21:07:52.942Z,1029.53
2019-03-22T21:11:57.340Z,1029.57
2019-03-22T21:13:52.945Z,1029.51
2019-03-22T21:17:52.929Z,1029.54
2019-03-22T21:20:01.888Z,1029.49
2019-03-22T21:23:52.980Z,1029.51
2019-03-22T21:25:52.963Z,1029.56
2019-03-22T21:29:57.473Z,1029.53
2019-03-22T21:31:52.994Z,1029.64
2019-03-22T21:35:52.995Z,1029.70
2019-03-22T21:37:52.964Z,1029.68
2019-03-22T21:41:52.986Z,1029.73
2019-03-22T21:43:52.999Z,1029.75
2019-03-22T21:47:52.972Z,1029.85
2019-03-22T21:50:02.279Z,1029.82
2019-03-22T21:53:52.991Z,1029.81
2019-03-22T21:55:54.290Z,1029.88
2019-03-22T21:59:53.013Z,1029.90
2019-03-22T22:01:52.995Z,1029.92
2019-03-22T22:05:54.047Z,1029.96
2019-03-22T22:07:53.006Z,1029.94
2019-03-22T22:11:52.993Z,1029.91
2019-03-22T22:13:53.019Z,1029.90
2019-03-22T22:17:53.002Z,1029.93
2019-03-22T22:19:53.006Z,1030.00
2019-03-22T22:23:55.253Z,1029.98
2019-03-22T22:25:52.994Z,1029.97
2019-03-22T22:29:53.018Z,1030.00
2019-03-22T22:31:53.005Z,1030.01
2019-03-22T22:35:59.153Z,1030.00
2019-03-22T22:37:53.039Z,1030.00
2019-03-22T22:41:53.041Z,1030.00
2019-03-22T22:43:53.026Z,1029.96
2019-03-22T22:47:53.030Z,1030.07
2019-03-22T22:49:53.044Z,1030.06
2019-03-22T22:53:55.346Z,1030.17
2019-03-22T22:55:53.033Z,1030.13
2019-03-22T22:59:53.062Z,1030.19
2019-03-22T23:01:53.046Z,1030.17
2019-03-22T23:05:53.053Z,1030.18
2019-03-22T23:07:53.059Z,1030.14
2019-03-22T23:11:53.056Z,1030.15
2019-03-22T23:13:53.061Z,1030.12
2019-03-22T23:17:53.139Z,1030.07
2019-03-22T23:19:53.074Z,1030.16
2019-03-22T23:23:53.104Z,1030.11
2019-03-22T23:25:53.391Z,1030.12
2019-03-22T23:29:53.123Z,1030.09
2019-03-22T23:31:53.096Z,1030.03
2019-03-22T23:35:53.137Z,1029.98
2019-03-22T23:37:53.133Z,1029.96
2019-03-22T23:41:53.118Z,1029.89
2019-03-22T23:43:54.148Z,1029.91
2019-03-22T23:47:55.267Z,1029.86
2019-03-22T23:49:53.140Z,1029.94
2019-03-22T23:53:53.145Z,1029.84
2019-03-22T23:55:53.147Z,1029.85
2019-03-22T23:59:53.134Z,1029.82
